sensor_id;sensor_type;location;lat;lon;timestamp;pressure;altitude;pressure_sealevel;temperature;humidity
58471;BME280;44258;51.288;12.068;2023-04-28T00:02:01;100716.34;;;7.81;47.75
58471;BME280;44258;51.288;12.068;2023-04-28T00:04:28;100714.38;;;7.86;47.97
58471;BME280;44258;51.288;12.068;2023-04-28T00:06:54;100704.59;;;7.85;47.93
58471;BME280;44258;51.288;12.068;2023-04-28T00:09:21;100712.97;;;7.76;48.32
58471;BME280;44258;51.288;12.068;2023-04-28T00:11:49;100705.44;;;7.62;48.59
58471;BME280;44258;51.288;12.068;2023-04-28T00:14:16;100707.69;;;7.73;48.87
58471;BME280;44258;51.288;12.068;2023-04-28T00:16:42;100699.72;;;7.71;48.33
58471;BME280;44258;51.288;12.068;2023-04-28T00:19:09;100700.44;;;7.77;48.41
58471;BME280;44258;51.288;12.068;2023-04-28T00:21:35;100694.94;;;7.81;48.59
58471;BME280;44258;51.288;12.068;2023-04-28T00:24:02;100689.78;;;7.75;48.95
58471;BME280;44258;51.288;12.068;2023-04-28T00:26:29;100692.41;;;7.77;48.62
58471;BME280;44258;51.288;12.068;2023-04-28T00:28:57;100687.00;;;7.78;48.58
58471;BME280;44258;51.288;12.068;2023-04-28T00:31:23;100686.19;;;7.76;48.95
58471;BME280;44258;51.288;12.068;2023-04-28T00:33:50;100675.63;;;7.71;49.13
58471;BME280;44258;51.288;12.068;2023-04-28T00:36:16;100681.00;;;7.71;49.13
58471;BME280;44258;51.288;12.068;2023-04-28T00:38:43;100673.97;;;7.69;49.06
58471;BME280;44258;51.288;12.068;2023-04-28T00:41:13;100665.00;;;7.70;48.37
58471;BME280;44258;51.288;12.068;2023-04-28T00:43:43;100667.78;;;7.67;48.22
58471;BME280;44258;51.288;12.068;2023-04-28T00:46:19;100672.63;;;7.57;48.20
58471;BME280;44258;51.288;12.068;2023-04-28T00:48:47;100661.00;;;7.82;48.34
58471;BME280;44258;51.288;12.068;2023-04-28T00:51:14;100669.38;;;7.72;48.31
58471;BME280;44258;51.288;12.068;2023-04-28T00:53:41;100658.44;;;7.55;49.17
58471;BME280;44258;51.288;12.068;2023-04-28T00:56:08;100655.88;;;7.52;49.12
58471;BME280;44258;51.288;12.068;2023-04-28T00:58:35;100661.91;;;7.57;48.86
58471;BME280;44258;51.288;12.068;2023-04-28T01:01:02;100659.56;;;7.49;48.37
58471;BME280;44258;51.288;12.068;2023-04-28T01:03:33;100663.28;;;7.45;48.95
58471;BME280;44258;51.288;12.068;2023-04-28T01:06:08;100657.69;;;7.51;48.82
58471;BME280;44258;51.288;12.068;2023-04-28T01:08:36;100651.34;;;7.54;48.70
58471;BME280;44258;51.288;12.068;2023-04-28T01:11:04;100652.97;;;7.58;48.49
58471;BME280;44258;51.288;12.068;2023-04-28T01:13:31;100651.09;;;7.60;48.43
58471;BME280;44258;51.288;12.068;2023-04-28T01:15:57;100643.28;;;7.56;49.14
58471;BME280;44258;51.288;12.068;2023-04-28T01:18:25;100638.66;;;7.59;49.50
58471;BME280;44258;51.288;12.068;2023-04-28T01:20:56;100629.50;;;7.65;49.37
58471;BME280;44258;51.288;12.068;2023-04-28T01:23:23;100621.97;;;7.52;49.80
58471;BME280;44258;51.288;12.068;2023-04-28T01:25:50;100622.53;;;7.61;49.85
58471;BME280;44258;51.288;12.068;2023-04-28T01:28:17;100621.94;;;7.76;49.39
58471;BME280;44258;51.288;12.068;2023-04-28T01:30:44;100633.72;;;7.72;49.33
58471;BME280;44258;51.288;12.068;2023-04-28T01:33:10;100628.97;;;7.79;49.34
58471;BME280;44258;51.288;12.068;2023-04-28T01:35:37;100616.22;;;7.85;48.87
58471;BME280;44258;51.288;12.068;2023-04-28T01:38:03;100620.84;;;7.82;48.44
58471;BME280;44258;51.288;12.068;2023-04-28T01:40:30;100617.56;;;7.73;48.14
58471;BME280;44258;51.288;12.068;2023-04-28T01:42:58;100619.91;;;7.59;48.41
58471;BME280;44258;51.288;12.068;2023-04-28T01:45:25;100624.63;;;7.52;48.33
58471;BME280;44258;51.288;12.068;2023-04-28T01:47:51;100620.38;;;7.47;48.19
58471;BME280;44258;51.288;12.068;2023-04-28T01:50:19;100620.34;;;7.48;49.02
58471;BME280;44258;51.288;12.068;2023-04-28T01:52:47;100620.34;;;7.48;48.74
58471;BME280;44258;51.288;12.068;2023-04-28T01:55:14;100607.97;;;7.46;48.40
58471;BME280;44258;51.288;12.068;2023-04-28T01:57:41;100604.66;;;7.39;48.61
58471;BME280;44258;51.288;12.068;2023-04-28T02:00:10;100600.22;;;7.38;48.66
58471;BME280;44258;51.288;12.068;2023-04-28T02:02:39;100599.13;;;7.44;49.05
58471;BME280;44258;51.288;12.068;2023-04-28T02:05:07;100603.94;;;7.58;48.81
58471;BME280;44258;51.288;12.068;2023-04-28T02:07:33;100594.53;;;7.47;49.34
58471;BME280;44258;51.288;12.068;2023-04-28T02:10:00;100595.44;;;7.46;49.80
58471;BME280;44258;51.288;12.068;2023-04-28T02:12:27;100593.34;;;7.54;49.28
58471;BME280;44258;51.288;12.068;2023-04-28T02:14:53;100584.50;;;7.52;48.80
58471;BME280;44258;51.288;12.068;2023-04-28T02:17:21;100580.09;;;7.51;49.10
58471;BME280;44258;51.288;12.068;2023-04-28T02:19:53;100579.03;;;7.56;49.61
58471;BME280;44258;51.288;12.068;2023-04-28T02:22:21;100580.22;;;7.70;49.55
58471;BME280;44258;51.288;12.068;2023-04-28T02:24:48;100569.31;;;7.75;48.90
58471;BME280;44258;51.288;12.068;2023-04-28T02:27:16;100571.06;;;7.76;49.11
58471;BME280;44258;51.288;12.068;2023-04-28T02:29:43;100573.81;;;7.74;49.47
58471;BME280;44258;51.288;12.068;2023-04-28T02:32:10;100577.91;;;7.61;49.97
58471;BME280;44258;51.288;12.068;2023-04-28T02:34:38;100575.34;;;7.36;50.94
58471;BME280;44258;51.288;12.068;2023-04-28T02:37:07;100574.84;;;7.48;50.48
58471;BME280;44258;51.288;12.068;2023-04-28T02:39:33;100573.44;;;7.62;49.67
58471;BME280;44258;51.288;12.068;2023-04-28T02:42:00;100560.53;;;7.71;49.74
58471;BME280;44258;51.288;12.068;2023-04-28T02:44:31;100561.28;;;7.75;48.87
58471;BME280;44258;51.288;12.068;2023-04-28T02:46:57;100566.91;;;7.69;48.73
58471;BME280;44258;51.288;12.068;2023-04-28T02:49:24;100560.88;;;7.64;48.75
58471;BME280;44258;51.288;12.068;2023-04-28T02:51:52;100555.78;;;7.58;48.62
58471;BME280;44258;51.288;12.068;2023-04-28T02:54:19;100553.25;;;7.53;49.00
58471;BME280;44258;51.288;12.068;2023-04-28T02:56:52;100553.41;;;7.50;49.03
58471;BME280;44258;51.288;12.068;2023-04-28T02:59:18;100557.06;;;7.47;49.41
58471;BME280;44258;51.288;12.068;2023-04-28T03:01:45;100553.16;;;7.56;49.32
58471;BME280;44258;51.288;12.068;2023-04-28T03:04:12;100548.31;;;7.66;49.25
58471;BME280;44258;51.288;12.068;2023-04-28T03:06:38;100543.75;;;7.68;48.92
58471;BME280;44258;51.288;12.068;2023-04-28T03:09:09;100544.00;;;7.62;49.41
58471;BME280;44258;51.288;12.068;2023-04-28T03:11:36;100539.31;;;7.67;48.91
58471;BME280;44258;51.288;12.068;2023-04-28T03:14:03;100530.38;;;7.68;49.11
58471;BME280;44258;51.288;12.068;2023-04-28T03:16:34;100530.47;;;7.65;49.02
58471;BME280;44258;51.288;12.068;2023-04-28T03:19:01;100527.81;;;7.65;49.00
58471;BME280;44258;51.288;12.068;2023-04-28T03:21:28;100523.66;;;7.58;49.18
58471;BME280;44258;51.288;12.068;2023-04-28T03:23:57;100511.38;;;7.52;49.25
58471;BME280;44258;51.288;12.068;2023-04-28T03:26:25;100507.28;;;7.43;49.45
58471;BME280;44258;51.288;12.068;2023-04-28T03:28:51;100508.56;;;7.33;49.79
58471;BME280;44258;51.288;12.068;2023-04-28T03:31:23;100504.59;;;7.21;49.82
58471;BME280;44258;51.288;12.068;2023-04-28T03:33:49;100496.88;;;7.13;50.17
58471;BME280;44258;51.288;12.068;2023-04-28T03:36:16;100499.50;;;7.15;50.75
58471;BME280;44258;51.288;12.068;2023-04-28T03:38:43;100497.78;;;7.12;50.36
58471;BME280;44258;51.288;12.068;2023-04-28T03:41:10;100507.19;;;7.23;50.69
58471;BME280;44258;51.288;12.068;2023-04-28T03:43:38;100497.00;;;7.32;50.11
58471;BME280;44258;51.288;12.068;2023-04-28T03:46:06;100489.72;;;7.36;50.05
58471;BME280;44258;51.288;12.068;2023-04-28T03:48:33;100492.22;;;7.41;50.21
58471;BME280;44258;51.288;12.068;2023-04-28T03:51:00;100493.75;;;7.24;51.63
58471;BME280;44258;51.288;12.068;2023-04-28T03:53:26;100481.81;;;7.11;52.37
58471;BME280;44258;51.288;12.068;2023-04-28T03:55:53;100485.97;;;7.18;51.60
58471;BME280;44258;51.288;12.068;2023-04-28T03:58:21;100472.59;;;7.18;51.19
58471;BME280;44258;51.288;12.068;2023-04-28T04:00:48;100470.38;;;7.07;51.34
58471;BME280;44258;51.288;12.068;2023-04-28T04:03:15;100473.47;;;6.97;51.46
58471;BME280;44258;51.288;12.068;2023-04-28T04:05:42;100469.91;;;6.96;51.30
58471;BME280;44258;51.288;12.068;2023-04-28T04:08:08;100467.19;;;6.98;51.34
58471;BME280;44258;51.288;12.068;2023-04-28T04:10:35;100467.22;;;6.96;51.84
58471;BME280;44258;51.288;12.068;2023-04-28T04:13:02;100464.31;;;7.02;51.49
58471;BME280;44258;51.288;12.068;2023-04-28T04:15:28;100466.75;;;7.08;51.29
58471;BME280;44258;51.288;12.068;2023-04-28T04:17:56;100458.44;;;7.16;51.56
58471;BME280;44258;51.288;12.068;2023-04-28T04:20:23;100469.50;;;7.07;52.34
58471;BME280;44258;51.288;12.068;2023-04-28T04:22:50;100462.91;;;7.16;51.59
58471;BME280;44258;51.288;12.068;2023-04-28T04:25:18;100459.97;;;7.00;52.06
58471;BME280;44258;51.288;12.068;2023-04-28T04:27:45;100450.50;;;6.91;52.22
58471;BME280;44258;51.288;12.068;2023-04-28T04:30:12;100454.19;;;6.88;52.17
58471;BME280;44258;51.288;12.068;2023-04-28T04:32:38;100451.38;;;6.91;52.48
58471;BME280;44258;51.288;12.068;2023-04-28T04:35:07;100446.84;;;6.93;52.44
58471;BME280;44258;51.288;12.068;2023-04-28T04:37:34;100447.22;;;7.06;52.49
58471;BME280;44258;51.288;12.068;2023-04-28T04:40:00;100445.81;;;7.20;51.90
58471;BME280;44258;51.288;12.068;2023-04-28T04:42:30;100440.06;;;7.29;51.83
58471;BME280;44258;51.288;12.068;2023-04-28T04:44:57;100441.78;;;7.31;51.70
58471;BME280;44258;51.288;12.068;2023-04-28T04:47:23;100436.53;;;7.28;51.66
58471;BME280;44258;51.288;12.068;2023-04-28T04:49:51;100435.47;;;7.32;51.70
58471;BME280;44258;51.288;12.068;2023-04-28T04:52:19;100438.78;;;7.39;51.98
58471;BME280;44258;51.288;12.068;2023-04-28T04:54:46;100438.53;;;7.45;51.89
58471;BME280;44258;51.288;12.068;2023-04-28T04:57:13;100440.25;;;7.46;51.83
58471;BME280;44258;51.288;12.068;2023-04-28T04:59:42;100438.41;;;7.48;52.00
58471;BME280;44258;51.288;12.068;2023-04-28T05:02:08;100435.19;;;7.61;52.18
58471;BME280;44258;51.288;12.068;2023-04-28T05:04:35;100427.66;;;7.70;52.02
58471;BME280;44258;51.288;12.068;2023-04-28T05:07:01;100430.84;;;7.80;52.09
58471;BME280;44258;51.288;12.068;2023-04-28T05:09:34;100422.59;;;7.85;51.87
58471;BME280;44258;51.288;12.068;2023-04-28T05:12:01;100428.03;;;7.83;51.97
58471;BME280;44258;51.288;12.068;2023-04-28T05:14:27;100432.56;;;7.81;52.16
58471;BME280;44258;51.288;12.068;2023-04-28T05:16:54;100433.06;;;7.91;52.06
58471;BME280;44258;51.288;12.068;2023-04-28T05:19:22;100422.41;;;7.89;52.04
58471;BME280;44258;51.288;12.068;2023-04-28T05:21:49;100422.19;;;7.94;51.83
58471;BME280;44258;51.288;12.068;2023-04-28T05:24:19;100424.00;;;7.93;52.22
58471;BME280;44258;51.288;12.068;2023-04-28T05:26:49;100417.84;;;7.91;52.28
58471;BME280;44258;51.288;12.068;2023-04-28T05:29:15;100412.72;;;7.87;52.54
58471;BME280;44258;51.288;12.068;2023-04-28T05:31:42;100414.31;;;7.91;52.52
58471;BME280;44258;51.288;12.068;2023-04-28T05:34:08;100407.41;;;7.85;52.70
58471;BME280;44258;51.288;12.068;2023-04-28T05:36:35;100405.69;;;7.84;52.56
58471;BME280;44258;51.288;12.068;2023-04-28T05:39:01;100410.25;;;7.82;53.18
58471;BME280;44258;51.288;12.068;2023-04-28T05:41:33;100407.00;;;7.74;52.82
58471;BME280;44258;51.288;12.068;2023-04-28T05:44:01;100394.41;;;7.76;53.04
58471;BME280;44258;51.288;12.068;2023-04-28T05:46:27;100399.31;;;7.87;53.10
58471;BME280;44258;51.288;12.068;2023-04-28T05:48:54;100401.94;;;7.88;52.74
58471;BME280;44258;51.288;12.068;2023-04-28T05:51:21;100404.47;;;7.91;52.97
58471;BME280;44258;51.288;12.068;2023-04-28T05:53:47;100396.16;;;7.98;52.97
58471;BME280;44258;51.288;12.068;2023-04-28T05:56:14;100398.03;;;7.96;52.63
58471;BME280;44258;51.288;12.068;2023-04-28T05:58:42;100400.59;;;7.99;52.61
58471;BME280;44258;51.288;12.068;2023-04-28T06:01:10;100400.09;;;8.09;52.41
58471;BME280;44258;51.288;12.068;2023-04-28T06:03:36;100392.66;;;8.16;52.58
58471;BME280;44258;51.288;12.068;2023-04-28T06:06:07;100394.78;;;8.28;52.44
58471;BME280;44258;51.288;12.068;2023-04-28T06:08:34;100400.97;;;8.49;52.06
58471;BME280;44258;51.288;12.068;2023-04-28T06:11:00;100392.56;;;8.57;51.70
58471;BME280;44258;51.288;12.068;2023-04-28T06:13:27;100390.38;;;8.46;52.12
58471;BME280;44258;51.288;12.068;2023-04-28T06:16:11;100392.44;;;8.60;51.76
58471;BME280;44258;51.288;12.068;2023-04-28T06:18:39;100387.66;;;8.86;51.73
58471;BME280;44258;51.288;12.068;2023-04-28T06:21:05;100380.88;;;8.77;50.49
58471;BME280;44258;51.288;12.068;2023-04-28T06:23:32;100384.53;;;8.76;50.84
58471;BME280;44258;51.288;12.068;2023-04-28T06:25:58;100381.19;;;8.71;50.79
58471;BME280;44258;51.288;12.068;2023-04-28T06:28:28;100384.00;;;8.87;50.68
58471;BME280;44258;51.288;12.068;2023-04-28T06:30:55;100389.81;;;8.97;50.51
58471;BME280;44258;51.288;12.068;2023-04-28T06:33:25;100385.84;;;9.04;50.73
58471;BME280;44258;51.288;12.068;2023-04-28T06:35:52;100382.81;;;9.11;50.20
58471;BME280;44258;51.288;12.068;2023-04-28T06:38:18;100393.97;;;9.21;49.87
58471;BME280;44258;51.288;12.068;2023-04-28T06:40:45;100389.31;;;9.25;50.00
58471;BME280;44258;51.288;12.068;2023-04-28T06:43:12;100383.66;;;9.31;49.58
58471;BME280;44258;51.288;12.068;2023-04-28T06:45:38;100388.13;;;9.49;49.95
58471;BME280;44258;51.288;12.068;2023-04-28T06:48:06;100389.38;;;9.77;50.02
58471;BME280;44258;51.288;12.068;2023-04-28T06:50:33;100375.06;;;9.77;49.48
58471;BME280;44258;51.288;12.068;2023-04-28T06:53:00;100366.88;;;9.80;49.64
58471;BME280;44258;51.288;12.068;2023-04-28T06:55:27;100366.16;;;9.76;49.90
58471;BME280;44258;51.288;12.068;2023-04-28T06:57:58;100365.97;;;9.79;49.85
58471;BME280;44258;51.288;12.068;2023-04-28T07:00:25;100365.25;;;9.93;49.98
58471;BME280;44258;51.288;12.068;2023-04-28T07:02:51;100356.47;;;10.07;49.64
58471;BME280;44258;51.288;12.068;2023-04-28T07:05:18;100360.00;;;10.25;49.70
58471;BME280;44258;51.288;12.068;2023-04-28T07:07:46;100359.41;;;10.51;49.53
58471;BME280;44258;51.288;12.068;2023-04-28T07:10:13;100360.81;;;10.74;49.18
58471;BME280;44258;51.288;12.068;2023-04-28T07:12:42;100357.00;;;10.79;49.28
58471;BME280;44258;51.288;12.068;2023-04-28T07:15:09;100362.28;;;10.64;49.27
58471;BME280;44258;51.288;12.068;2023-04-28T07:17:36;100351.97;;;10.72;47.80
58471;BME280;44258;51.288;12.068;2023-04-28T07:20:03;100353.97;;;10.85;48.24
58471;BME280;44258;51.288;12.068;2023-04-28T07:22:31;100344.78;;;10.89;47.73
58471;BME280;44258;51.288;12.068;2023-04-28T07:24:59;100339.59;;;10.86;47.86
58471;BME280;44258;51.288;12.068;2023-04-28T07:27:25;100355.13;;;10.81;47.79
58471;BME280;44258;51.288;12.068;2023-04-28T07:29:52;100356.91;;;10.64;48.07
58471;BME280;44258;51.288;12.068;2023-04-28T07:32:18;100358.81;;;10.62;48.18
58471;BME280;44258;51.288;12.068;2023-04-28T07:34:45;100354.84;;;10.69;48.30
58471;BME280;44258;51.288;12.068;2023-04-28T07:37:12;100351.97;;;10.72;48.55
58471;BME280;44258;51.288;12.068;2023-04-28T07:39:40;100350.28;;;10.87;48.48
58471;BME280;44258;51.288;12.068;2023-04-28T07:42:08;100348.53;;;11.02;48.31
58471;BME280;44258;51.288;12.068;2023-04-28T07:44:35;100348.50;;;11.18;48.21
58471;BME280;44258;51.288;12.068;2023-04-28T07:47:02;100343.28;;;11.15;48.06
58471;BME280;44258;51.288;12.068;2023-04-28T07:49:30;100343.53;;;11.26;48.48
58471;BME280;44258;51.288;12.068;2023-04-28T07:51:56;100337.00;;;11.30;48.74
58471;BME280;44258;51.288;12.068;2023-04-28T07:54:24;100337.59;;;11.35;49.13
58471;BME280;44258;51.288;12.068;2023-04-28T07:56:50;100332.72;;;11.42;48.29
58471;BME280;44258;51.288;12.068;2023-04-28T07:59:18;100336.31;;;11.57;48.25
58471;BME280;44258;51.288;12.068;2023-04-28T08:01:58;100339.59;;;11.77;47.97
58471;BME280;44258;51.288;12.068;2023-04-28T08:04:27;100344.75;;;11.81;47.02
58471;BME280;44258;51.288;12.068;2023-04-28T08:06:56;100330.13;;;11.85;47.53
58471;BME280;44258;51.288;12.068;2023-04-28T08:09:27;100338.19;;;11.85;46.73
58471;BME280;44258;51.288;12.068;2023-04-28T08:11:53;100337.44;;;11.83;46.84
58471;BME280;44258;51.288;12.068;2023-04-28T08:14:22;100338.47;;;11.81;47.87
58471;BME280;44258;51.288;12.068;2023-04-28T08:16:53;100330.13;;;11.85;47.58
58471;BME280;44258;51.288;12.068;2023-04-28T08:19:19;100336.44;;;11.84;47.53
58471;BME280;44258;51.288;12.068;2023-04-28T08:21:47;100342.16;;;11.94;48.59
58471;BME280;44258;51.288;12.068;2023-04-28T08:24:14;100333.00;;;11.97;47.95
58471;BME280;44258;51.288;12.068;2023-04-28T08:26:40;100332.25;;;12.09;47.91
58471;BME280;44258;51.288;12.068;2023-04-28T08:29:07;100334.78;;;12.26;48.37
58471;BME280;44258;51.288;12.068;2023-04-28T08:31:35;100330.72;;;12.33;48.09
58471;BME280;44258;51.288;12.068;2023-04-28T08:34:02;100339.41;;;12.39;48.27
58471;BME280;44258;51.288;12.068;2023-04-28T08:36:33;100336.84;;;12.50;48.18
58471;BME280;44258;51.288;12.068;2023-04-28T08:39:06;100338.16;;;12.44;47.79
58471;BME280;44258;51.288;12.068;2023-04-28T08:41:37;100336.78;;;12.37;48.80
58471;BME280;44258;51.288;12.068;2023-04-28T08:44:25;100333.41;;;12.33;49.94
58471;BME280;44258;51.288;12.068;2023-04-28T08:46:58;100348.44;;;12.23;49.46
58471;BME280;44258;51.288;12.068;2023-04-28T08:49:34;100349.50;;;12.06;50.16
58471;BME280;44258;51.288;12.068;2023-04-28T08:52:02;100347.38;;;11.97;50.19
58471;BME280;44258;51.288;12.068;2023-04-28T08:54:39;100336.28;;;12.02;51.02
58471;BME280;44258;51.288;12.068;2023-04-28T08:57:08;100340.69;;;12.03;51.26
58471;BME280;44258;51.288;12.068;2023-04-28T08:59:39;100336.28;;;12.02;51.21
58471;BME280;44258;51.288;12.068;2023-04-28T09:02:08;100333.34;;;12.06;51.69
58471;BME280;44258;51.288;12.068;2023-04-28T09:04:35;100329.78;;;12.20;51.95
58471;BME280;44258;51.288;12.068;2023-04-28T09:07:02;100324.56;;;12.31;52.88
58471;BME280;44258;51.288;12.068;2023-04-28T09:09:29;100330.06;;;12.30;52.69
58471;BME280;44258;51.288;12.068;2023-04-28T09:11:57;100326.88;;;12.23;53.16
58471;BME280;44258;51.288;12.068;2023-04-28T09:14:25;100329.31;;;12.28;53.33
58471;BME280;44258;51.288;12.068;2023-04-28T09:16:53;100324.38;;;12.34;52.88
58471;BME280;44258;51.288;12.068;2023-04-28T09:19:21;100322.63;;;12.33;53.46
58471;BME280;44258;51.288;12.068;2023-04-28T09:21:49;100320.91;;;12.32;52.89
58471;BME280;44258;51.288;12.068;2023-04-28T09:24:28;100326.97;;;12.36;54.21
58471;BME280;44258;51.288;12.068;2023-04-28T09:26:59;100336.09;;;12.33;53.54
58471;BME280;44258;51.288;12.068;2023-04-28T09:29:27;100327.44;;;12.43;53.50
58471;BME280;44258;51.288;12.068;2023-04-28T09:31:54;100335.31;;;12.46;53.62
58471;BME280;44258;51.288;12.068;2023-04-28T09:34:45;100334.69;;;12.42;53.79
58471;BME280;44258;51.288;12.068;2023-04-28T09:37:16;100334.56;;;12.44;53.91
58471;BME280;44258;51.288;12.068;2023-04-28T09:39:44;100328.31;;;12.43;53.53
58471;BME280;44258;51.288;12.068;2023-04-28T09:42:31;100336.78;;;12.23;54.09
58471;BME280;44258;51.288;12.068;2023-04-28T09:44:59;100326.47;;;12.29;54.45
58471;BME280;44258;51.288;12.068;2023-04-28T09:47:28;100332.16;;;12.39;54.97
58471;BME280;44258;51.288;12.068;2023-04-28T09:50:10;100335.44;;;12.44;54.90
58471;BME280;44258;51.288;12.068;2023-04-28T09:52:39;100332.63;;;12.46;55.66
58471;BME280;44258;51.288;12.068;2023-04-28T09:55:07;100327.63;;;12.40;55.36
58471;BME280;44258;51.288;12.068;2023-04-28T09:57:35;100329.31;;;12.28;55.92
58471;BME280;44258;51.288;12.068;2023-04-28T10:00:03;100322.00;;;12.16;56.13
58471;BME280;44258;51.288;12.068;2023-04-28T10:02:35;100318.75;;;11.94;57.87
58471;BME280;44258;51.288;12.068;2023-04-28T10:05:02;100317.41;;;12.02;58.28
58471;BME280;44258;51.288;12.068;2023-04-28T10:07:31;100305.31;;;12.09;58.87
58471;BME280;44258;51.288;12.068;2023-04-28T10:10:04;100308.38;;;12.17;58.55
58471;BME280;44258;51.288;12.068;2023-04-28T10:12:32;100298.66;;;12.29;58.59
58471;BME280;44258;51.288;12.068;2023-04-28T10:14:59;100306.72;;;12.43;58.41
58471;BME280;44258;51.288;12.068;2023-04-28T10:17:26;100305.66;;;12.46;58.34
58471;BME280;44258;51.288;12.068;2023-04-28T10:19:53;100292.53;;;12.54;58.43
58471;BME280;44258;51.288;12.068;2023-04-28T10:22:36;100294.06;;;12.58;58.95
58471;BME280;44258;51.288;12.068;2023-04-28T10:25:19;100281.47;;;12.86;57.85
58471;BME280;44258;51.288;12.068;2023-04-28T10:27:52;100278.38;;;12.92;58.71
58471;BME280;44258;51.288;12.068;2023-04-28T10:30:20;100271.78;;;12.96;58.88
58471;BME280;44258;51.288;12.068;2023-04-28T10:33:23;100277.34;;;12.80;58.39
58471;BME280;44258;51.288;12.068;2023-04-28T10:35:51;100276.16;;;12.84;59.03
58471;BME280;44258;51.288;12.068;2023-04-28T10:38:19;100277.06;;;12.85;59.68
58471;BME280;44258;51.288;12.068;2023-04-28T10:40:47;100269.97;;;12.69;59.07
58471;BME280;44258;51.288;12.068;2023-04-28T10:43:32;100266.16;;;12.59;59.10
58471;BME280;44258;51.288;12.068;2023-04-28T10:46:06;100268.09;;;12.57;58.72
58471;BME280;44258;51.288;12.068;2023-04-28T10:49:03;100262.94;;;12.67;59.09
58471;BME280;44258;51.288;12.068;2023-04-28T10:51:33;100260.47;;;12.91;59.34
58471;BME280;44258;51.288;12.068;2023-04-28T10:54:14;100263.25;;;12.89;59.05
58471;BME280;44258;51.288;12.068;2023-04-28T10:57:14;100266.50;;;12.94;58.93
58471;BME280;44258;51.288;12.068;2023-04-28T10:59:44;100256.25;;;13.00;59.12
58471;BME280;44258;51.288;12.068;2023-04-28T11:02:36;100259.06;;;12.98;60.14
58471;BME280;44258;51.288;12.068;2023-04-28T11:05:17;100251.88;;;13.11;59.85
58471;BME280;44258;51.288;12.068;2023-04-28T11:11:20;100240.28;;;13.49;61.14
58471;BME280;44258;51.288;12.068;2023-04-28T11:13:48;100235.75;;;13.50;59.59
58471;BME280;44258;51.288;12.068;2023-04-28T11:16:16;100239.53;;;13.73;61.03
58471;BME280;44258;51.288;12.068;2023-04-28T11:18:59;100246.66;;;13.74;59.95
58471;BME280;44258;51.288;12.068;2023-04-28T11:21:29;100241.47;;;13.71;60.44
58471;BME280;44258;51.288;12.068;2023-04-28T11:23:57;100238.44;;;13.63;60.73
58471;BME280;44258;51.288;12.068;2023-04-28T11:26:26;100243.00;;;13.62;61.11
58471;BME280;44258;51.288;12.068;2023-04-28T11:28:55;100240.50;;;13.59;60.08
58471;BME280;44258;51.288;12.068;2023-04-28T11:31:24;100233.91;;;13.50;60.92
58471;BME280;44258;51.288;12.068;2023-04-28T11:34:04;100239.00;;;13.42;60.55
58471;BME280;44258;51.288;12.068;2023-04-28T11:36:33;100227.66;;;13.50;61.48
58471;BME280;44258;51.288;12.068;2023-04-28T11:39:01;100226.78;;;13.37;60.62
58471;BME280;44258;51.288;12.068;2023-04-28T11:41:30;100222.25;;;12.97;60.59
58471;BME280;44258;51.288;12.068;2023-04-28T11:43:58;100223.38;;;12.80;60.81
58471;BME280;44258;51.288;12.068;2023-04-28T11:46:26;100212.50;;;12.82;61.13
58471;BME280;44258;51.288;12.068;2023-04-28T11:49:00;100217.03;;;12.81;61.96
58471;BME280;44258;51.288;12.068;2023-04-28T11:51:32;100219.63;;;12.83;61.98
58471;BME280;44258;51.288;12.068;2023-04-28T11:53:59;100226.31;;;12.90;61.80
58471;BME280;44258;51.288;12.068;2023-04-28T11:56:27;100220.09;;;13.15;61.57
58471;BME280;44258;51.288;12.068;2023-04-28T11:59:07;100215.69;;;13.01;61.85
58471;BME280;44258;51.288;12.068;2023-04-28T12:01:43;100217.19;;;13.05;61.36
58471;BME280;44258;51.288;12.068;2023-04-28T12:04:26;100215.53;;;12.90;60.71
58471;BME280;44258;51.288;12.068;2023-04-28T12:07:05;100213.28;;;12.97;61.97
58471;BME280;44258;51.288;12.068;2023-04-28T12:09:35;100211.91;;;13.04;60.85
58471;BME280;44258;51.288;12.068;2023-04-28T12:12:03;100209.72;;;12.96;61.47
58471;BME280;44258;51.288;12.068;2023-04-28T12:14:52;100212.56;;;13.07;61.11
58471;BME280;44258;51.288;12.068;2023-04-28T12:17:23;100206.13;;;13.23;60.37
58471;BME280;44258;51.288;12.068;2023-04-28T12:19:49;100209.16;;;13.31;60.45
58471;BME280;44258;51.288;12.068;2023-04-28T12:22:20;100210.22;;;13.41;59.99
58471;BME280;44258;51.288;12.068;2023-04-28T12:25:02;100210.66;;;13.35;60.49
58471;BME280;44258;51.288;12.068;2023-04-28T12:27:28;100207.44;;;13.43;59.67
58471;BME280;44258;51.288;12.068;2023-04-28T12:29:57;100209.03;;;13.45;58.85
58471;BME280;44258;51.288;12.068;2023-04-28T12:32:36;100204.41;;;13.34;59.08
58471;BME280;44258;51.288;12.068;2023-04-28T12:35:03;100196.84;;;13.40;58.38
58471;BME280;44258;51.288;12.068;2023-04-28T12:37:30;100192.97;;;13.44;58.29
58471;BME280;44258;51.288;12.068;2023-04-28T12:39:57;100189.84;;;13.50;59.05
58471;BME280;44258;51.288;12.068;2023-04-28T12:42:23;100188.31;;;13.59;58.98
58471;BME280;44258;51.288;12.068;2023-04-28T12:44:53;100189.38;;;13.69;58.55
58471;BME280;44258;51.288;12.068;2023-04-28T12:47:22;100201.25;;;13.79;58.55
58471;BME280;44258;51.288;12.068;2023-04-28T12:49:49;100184.94;;;13.68;58.25
58471;BME280;44258;51.288;12.068;2023-04-28T12:52:18;100186.34;;;13.73;58.38
58471;BME280;44258;51.288;12.068;2023-04-28T12:54:45;100179.97;;;13.74;58.76
58471;BME280;44258;51.288;12.068;2023-04-28T12:57:12;100187.41;;;13.84;58.14
58471;BME280;44258;51.288;12.068;2023-04-28T12:59:38;100176.28;;;13.75;58.58